createdAt,value
2022-08-19T00:02:48.658Z,97093.44
2022-08-19T00:05:53.317Z,97115.25
2022-08-19T00:08:56.640Z,97125.94
2022-08-19T00:12:02.204Z,97110.88
2022-08-19T00:15:05.961Z,97121.22
2022-08-19T00:18:15.084Z,97129.78
2022-08-19T00:21:18.628Z,97117.34
2022-08-19T00:24:21.492Z,97131.41
2022-08-19T00:27:26.928Z,97132.47
2022-08-19T00:30:30.858Z,97131.97
2022-08-19T00:33:34.470Z,97124.13
2022-08-19T00:36:38.010Z,97128.66
2022-08-19T00:39:41.052Z,97122.84
2022-08-19T00:42:48.440Z,97139.31
2022-08-19T00:45:52.767Z,97140.13
2022-08-19T00:48:56.918Z,97141.25
2022-08-19T00:52:03.872Z,97152.75
2022-08-19T00:55:11.361Z,97162.94
2022-08-19T00:58:19.100Z,97155.28
2022-08-19T01:01:22.018Z,97159.00
2022-08-19T01:04:24.864Z,97168.13
2022-08-19T01:07:27.885Z,97158.44
2022-08-19T01:10:36.844Z,97164.09
2022-08-19T01:13:49.005Z,97172.81
2022-08-19T01:16:55.440Z,97166.50
2022-08-19T01:19:58.344Z,97150.41
2022-08-19T01:23:03.117Z,97146.84
2022-08-19T01:26:06.180Z,97138.03
2022-08-19T01:29:11.645Z,97134.00
2022-08-19T01:32:33.670Z,97138.72
2022-08-19T01:35:45.595Z,97144.31
2022-08-19T01:39:01.639Z,97156.34
2022-08-19T01:42:06.219Z,97159.75
2022-08-19T01:45:10.340Z,97172.94
2022-08-19T01:48:13.790Z,97189.09
2022-08-19T01:51:16.652Z,97180.59
2022-08-19T01:54:22.847Z,97174.72
2022-08-19T01:57:30.303Z,97175.41
2022-08-19T02:00:34.811Z,97174.34
2022-08-19T02:03:37.596Z,97192.19
2022-08-19T02:06:40.919Z,97199.03
2022-08-19T02:09:45.086Z,97203.66
2022-08-19T02:12:48.034Z,97210.75
2022-08-19T02:15:51.043Z,97188.75
2022-08-19T02:18:53.867Z,97188.75
2022-08-19T02:21:56.716Z,97182.09
2022-08-19T02:25:01.124Z,97157.53
2022-08-19T02:28:05.633Z,97171.22
2022-08-19T02:31:11.819Z,97187.00
2022-08-19T02:34:14.663Z,97199.28
2022-08-19T02:37:31.418Z,97199.63
2022-08-19T02:40:39.305Z,97204.34
2022-08-19T02:44:02.752Z,97205.16
2022-08-19T02:47:05.945Z,97233.00
2022-08-19T02:50:09.630Z,97253.41
2022-08-19T02:53:13.021Z,97260.81
2022-08-19T02:56:18.731Z,97260.00
2022-08-19T02:59:22.895Z,97257.13
2022-08-19T03:02:26.204Z,97257.34
2022-08-19T03:05:55.828Z,97245.75
2022-08-19T03:08:52.464Z,97249.91
2022-08-19T03:11:56.802Z,97265.47
2022-08-19T03:15:00.032Z,97262.91
2022-08-19T03:18:03.123Z,97268.25
2022-08-19T03:21:06.943Z,97266.06
2022-08-19T03:24:16.685Z,97254.81
2022-08-19T03:27:20.892Z,97255.03
2022-08-19T03:30:24.071Z,97262.69
2022-08-19T03:33:28.755Z,97271.03
2022-08-19T03:36:31.904Z,97276.25
2022-08-19T03:39:35.933Z,97275.69
2022-08-19T03:42:48.616Z,97274.53
2022-08-19T03:46:05.213Z,97265.34
2022-08-19T03:49:09.692Z,97269.88
2022-08-19T03:52:13.186Z,97281.59
2022-08-19T03:55:16.731Z,97289.47
2022-08-19T03:58:21.257Z,97295.16
2022-08-19T04:01:30.361Z,97280.09
2022-08-19T04:04:39.606Z,97278.56
2022-08-19T04:07:42.796Z,97280.53
2022-08-19T04:10:45.628Z,97283.81
2022-08-19T04:13:52.096Z,97282.63
2022-08-19T04:16:55.900Z,97283.81
2022-08-19T04:19:58.923Z,97289.84
2022-08-19T04:23:03.556Z,97284.38
2022-08-19T04:26:06.399Z,97288.94
2022-08-19T04:29:17.643Z,97287.41
2022-08-19T04:32:20.506Z,97290.63
2022-08-19T04:35:25.025Z,97297.84
2022-08-19T04:38:27.916Z,97297.28
2022-08-19T04:41:49.036Z,97298.75
2022-08-19T04:44:53.468Z,97306.19
2022-08-19T04:48:26.432Z,97312.72
2022-08-19T04:51:21.692Z,97322.91
2022-08-19T04:54:38.250Z,97317.00
2022-08-19T04:57:42.249Z,97311.66
2022-08-19T05:00:46.413Z,97320.94
2022-08-19T05:03:49.390Z,97320.47
2022-08-19T05:06:54.351Z,97325.81
2022-08-19T05:10:03.498Z,97337.50
2022-08-19T05:13:06.558Z,97338.78
2022-08-19T05:16:12.553Z,97345.97
2022-08-19T05:19:33.606Z,97360.47
2022-08-19T05:22:39.459Z,97365.81
2022-08-19T05:25:42.839Z,97373.22
2022-08-19T05:28:47.282Z,97377.63
2022-08-19T05:31:52.516Z,97376.59
2022-08-19T05:34:56.197Z,97384.38
2022-08-19T05:37:59.244Z,97398.16
2022-08-19T05:41:02.099Z,97395.84
2022-08-19T05:44:10.225Z,97415.19
2022-08-19T05:47:16.183Z,97424.59
2022-08-19T05:50:19.090Z,97428.00
2022-08-19T05:53:21.965Z,97422.88
2022-08-19T05:56:24.765Z,97441.75
2022-08-19T05:59:27.585Z,97449.91
2022-08-19T06:02:32.403Z,97461.16
2022-08-19T06:05:42.348Z,97463.94
2022-08-19T06:08:54.682Z,97474.38
2022-08-19T06:12:00.900Z,97483.91
2022-08-19T06:15:08.150Z,97492.38
2022-08-19T06:18:12.794Z,97493.75
2022-08-19T06:21:15.735Z,97495.63
2022-08-19T06:24:21.697Z,97490.03
2022-08-19T06:27:25.133Z,97484.38
2022-08-19T06:30:28.565Z,97487.16
2022-08-19T06:33:32.716Z,97489.59
2022-08-19T06:36:38.676Z,97493.31
2022-08-19T06:39:44.346Z,97504.00
2022-08-19T06:42:54.432Z,97500.72
2022-08-19T06:45:57.538Z,97497.25
2022-08-19T06:49:03.368Z,97496.09
2022-08-19T06:52:07.555Z,97489.59
2022-08-19T06:55:10.822Z,97487.63
2022-08-19T06:58:15.206Z,97484.69
2022-08-19T07:01:18.012Z,97476.59
2022-08-19T07:04:27.254Z,97488.41
2022-08-19T07:07:30.108Z,97474.97
2022-08-19T07:10:33.857Z,97472.66
2022-08-19T07:13:37.879Z,97473.00
2022-08-19T07:16:43.050Z,97481.34
2022-08-19T07:19:47.441Z,97484.25
2022-08-19T07:22:50.395Z,97478.22
2022-08-19T07:25:53.460Z,97489.09
2022-08-19T07:28:58.533Z,97499.75
2022-08-19T07:32:02.731Z,97509.31
2022-08-19T07:35:08.315Z,97519.53
2022-08-19T07:38:11.444Z,97505.50
2022-08-19T07:41:15.947Z,97506.75
2022-08-19T07:44:21.127Z,97507.69
2022-08-19T07:47:49.300Z,97512.94
2022-08-19T07:50:49.449Z,97523.72
2022-08-19T07:53:52.649Z,97524.97
2022-08-19T07:56:55.855Z,97524.41
2022-08-19T07:59:58.642Z,97516.84
2022-08-19T08:03:01.753Z,97520.31
2022-08-19T08:06:24.636Z,97533.81
2022-08-19T08:09:32.284Z,97548.09
2022-08-19T08:12:41.586Z,97545.16
2022-08-19T08:15:45.639Z,97548.09
2022-08-19T08:18:50.573Z,97554.34
2022-08-19T08:22:00.078Z,97550.03
2022-08-19T08:25:06.753Z,97553.50
2022-08-19T08:28:11.224Z,97539.00
2022-08-19T08:31:14.306Z,97542.38
2022-08-19T08:34:17.166Z,97545.38
2022-08-19T08:37:23.157Z,97553.13
2022-08-19T08:40:32.112Z,97554.53
2022-08-19T08:43:37.106Z,97552.44
2022-08-19T08:46:44.599Z,97550.38
2022-08-19T08:49:52.806Z,97560.59
2022-08-19T08:52:59.293Z,97568.44
2022-08-19T08:56:05.800Z,97555.84
2022-08-19T08:59:18.178Z,97555.13
2022-08-19T09:02:21.371Z,97537.75
2022-08-19T09:05:28.760Z,97533.09
2022-08-19T09:08:51.334Z,97537.16
2022-08-19T09:12:07.150Z,97539.72
2022-08-19T09:15:17.222Z,97544.59
2022-08-19T09:18:20.008Z,97530.06
2022-08-19T09:21:30.382Z,97534.72
2022-08-19T09:24:37.555Z,97524.88
2022-08-19T09:27:43.631Z,97529.16
2022-08-19T09:30:46.714Z,97537.75
2022-08-19T09:33:52.317Z,97535.66
2022-08-19T09:36:56.474Z,97524.19
2022-08-19T09:40:01.122Z,97522.94
2022-08-19T09:43:13.173Z,97531.88
2022-08-19T09:46:18.374Z,97531.88
2022-08-19T09:49:24.395Z,97530.97
2022-08-19T09:52:32.818Z,97540.00
2022-08-19T09:55:37.232Z,97535.09
2022-08-19T09:58:40.991Z,97529.56
2022-08-19T10:01:44.460Z,97530.91
2022-08-19T10:05:06.435Z,97523.56
2022-08-19T10:08:13.552Z,97517.38
2022-08-19T10:11:27.546Z,97509.97
2022-08-19T10:14:37.854Z,97516.34
2022-08-19T10:17:42.227Z,97504.16
2022-08-19T10:20:53.514Z,97507.03
2022-08-19T10:23:58.635Z,97510.91
2022-08-19T10:27:04.714Z,97506.59
2022-08-19T10:30:10.221Z,97503.47
2022-08-19T10:33:38.301Z,97508.59
2022-08-19T10:36:55.522Z,97513.44
2022-08-19T10:39:59.636Z,97519.69
2022-08-19T10:43:03.966Z,97510.19
2022-08-19T10:46:13.935Z,97507.41
2022-08-19T10:49:17.180Z,97501.25
2022-08-19T10:52:34.867Z,97503.00
2022-08-19T10:55:59.815Z,97495.44
2022-08-19T10:59:04.960Z,97500.63
2022-08-19T11:02:11.045Z,97499.09
2022-08-19T11:05:15.704Z,97496.63
2022-08-19T11:08:23.385Z,97499.44
2022-08-19T11:11:27.205Z,97506.16
2022-08-19T11:14:34.139Z,97503.00
2022-08-19T11:17:41.021Z,97502.28
2022-08-19T11:20:43.853Z,97500.53
2022-08-19T11:23:47.795Z,97499.56
2022-08-19T11:26:53.652Z,97496.53
2022-08-19T11:29:57.985Z,97498.09
2022-08-19T11:33:02.052Z,97500.34
2022-08-19T11:36:05.454Z,97499.59
2022-08-19T11:39:10.597Z,97500.81
2022-08-19T11:42:30.565Z,97507.19
2022-08-19T11:45:35.042Z,97511.69
2022-08-19T11:48:38.984Z,97521.19
2022-08-19T11:51:43.898Z,97524.44
2022-08-19T11:54:46.854Z,97521.97
2022-08-19T11:57:49.768Z,97528.13
2022-08-19T12:00:54.563Z,97529.75
2022-08-19T12:03:58.582Z,97524.13
2022-08-19T12:07:01.444Z,97530.03
2022-08-19T12:10:04.948Z,97530.63
2022-08-19T12:13:08.718Z,97540.25
2022-08-19T12:16:15.223Z,97548.69
2022-08-19T12:19:22.352Z,97548.25
2022-08-19T12:22:25.578Z,97546.78
2022-08-19T12:25:28.802Z,97549.81
2022-08-19T12:28:32.532Z,97555.56
2022-08-19T12:31:36.748Z,97555.56
2022-08-19T12:34:39.741Z,97560.47
2022-08-19T12:37:45.364Z,97564.19
2022-08-19T12:41:00.512Z,97557.16
2022-08-19T12:44:03.953Z,97557.06
2022-08-19T12:47:14.312Z,97552.25
2022-08-19T12:50:18.353Z,97556.41
2022-08-19T12:53:23.959Z,97550.75
2022-08-19T12:56:27.350Z,97543.44
2022-08-19T12:59:30.200Z,97541.75
2022-08-19T13:02:38.940Z,97545.13
2022-08-19T13:05:45.046Z,97538.22
2022-08-19T13:08:48.103Z,97529.41
2022-08-19T13:11:51.266Z,97520.59
2022-08-19T13:14:57.351Z,97521.19
2022-08-19T13:18:01.587Z,97508.53
2022-08-19T13:21:06.186Z,97506.59
2022-08-19T13:24:09.165Z,97506.28
2022-08-19T13:27:12.389Z,97498.34
2022-08-19T13:30:34.962Z,97494.38
2022-08-19T13:33:39.574Z,97487.91
2022-08-19T13:36:42.631Z,97487.78
2022-08-19T13:39:46.119Z,97477.47
2022-08-19T13:42:51.483Z,97475.03
2022-08-19T13:45:57.823Z,97464.50
2022-08-19T13:49:02.362Z,97457.97
2022-08-19T13:52:06.430Z,97452.66
2022-08-19T13:55:11.952Z,97447.00
2022-08-19T13:58:16.039Z,97439.09
2022-08-19T14:01:24.342Z,97419.13
2022-08-19T14:04:29.040Z,97417.88
2022-08-19T14:07:31.798Z,97421.97
2022-08-19T14:10:34.753Z,97418.72
2022-08-19T14:13:38.150Z,97424.06
2022-08-19T14:16:41.810Z,97421.97
2022-08-19T14:19:48.261Z,97430.16
2022-08-19T14:22:51.309Z,97424.47
2022-08-19T14:26:00.809Z,97418.50
2022-08-19T14:29:06.263Z,97421.41
2022-08-19T14:32:11.023Z,97416.06
2022-08-19T14:35:22.177Z,97409.47
2022-08-19T14:38:31.479Z,97414.22
2022-08-19T14:41:34.653Z,97416.94
2022-08-19T14:44:37.837Z,97413.09
2022-08-19T14:47:41.108Z,97399.19
2022-08-19T14:50:45.508Z,97402.13
2022-08-19T14:53:50.596Z,97394.09
2022-08-19T14:56:53.717Z,97407.56
2022-08-19T14:59:58.047Z,97393.75
2022-08-19T15:03:00.934Z,97388.09
2022-08-19T15:06:07.070Z,97378.69
2022-08-19T15:09:10.339Z,97379.25
2022-08-19T15:12:13.144Z,97375.88
2022-08-19T15:15:25.113Z,97380.63
2022-08-19T15:18:28.122Z,97375.44
2022-08-19T15:21:33.283Z,97376.22
2022-08-19T15:24:36.296Z,97370.53
2022-08-19T15:27:51.329Z,97358.81
2022-08-19T15:30:54.633Z,97355.72
2022-08-19T15:33:58.858Z,97343.06
2022-08-19T15:37:04.677Z,97341.56
2022-08-19T15:40:09.717Z,97335.28
2022-08-19T15:43:12.774Z,97334.84
2022-08-19T15:46:18.985Z,97322.22
2022-08-19T15:49:21.833Z,97308.28
2022-08-19T15:52:26.509Z,97317.78
2022-08-19T15:55:34.577Z,97309.09
2022-08-19T15:58:56.217Z,97300.50
2022-08-19T16:02:16.652Z,97303.88
2022-08-19T16:05:41.061Z,97311.06
2022-08-19T16:08:49.055Z,97314.88
2022-08-19T16:11:56.757Z,97320.22
2022-08-19T16:15:00.302Z,97323.94
2022-08-19T16:18:04.434Z,97322.53
2022-08-19T16:21:08.107Z,97318.81
2022-08-19T16:24:14.184Z,97326.38
2022-08-19T16:27:18.615Z,97313.75
2022-08-19T16:30:21.507Z,97311.06
2022-08-19T16:33:27.232Z,97312.91
2022-08-19T16:36:31.363Z,97314.09
2022-08-19T16:39:35.720Z,97311.78
2022-08-19T16:42:39.828Z,97319.53
2022-08-19T16:45:43.355Z,97313.63
2022-08-19T16:48:47.807Z,97317.91
2022-08-19T16:51:50.725Z,97311.44
2022-08-19T16:54:55.617Z,97302.03
2022-08-19T16:57:58.481Z,97290.09
2022-08-19T17:01:04.246Z,97280.91
2022-08-19T17:04:07.271Z,97276.72
2022-08-19T17:07:10.860Z,97275.81
2022-08-19T17:10:15.106Z,97270.47
2022-08-19T17:13:18.050Z,97270.38
2022-08-19T17:16:25.006Z,97272.09
2022-08-19T17:19:28.419Z,97271.78
2022-08-19T17:22:31.205Z,97269.91
2022-08-19T17:25:35.886Z,97276.06
2022-08-19T17:28:38.676Z,97271.41
2022-08-19T17:31:41.449Z,97280.22
2022-08-19T17:34:44.283Z,97277.19
2022-08-19T17:37:47.754Z,97295.53
2022-08-19T17:40:52.715Z,97296.09
2022-08-19T17:43:58.754Z,97299.69
2022-08-19T17:47:01.532Z,97305.16
2022-08-19T17:50:05.414Z,97310.84
2022-08-19T17:53:08.405Z,97315.25
2022-08-19T17:56:18.042Z,97314.91
2022-08-19T17:59:20.950Z,97313.28
2022-08-19T18:02:28.715Z,97319.44
2022-08-19T18:05:37.069Z,97318.81
2022-08-19T18:08:40.045Z,97326.84
2022-08-19T18:11:44.852Z,97326.03
2022-08-19T18:14:52.521Z,97330.66
2022-08-19T18:17:56.355Z,97322.66
2022-08-19T18:20:59.312Z,97317.66
2022-08-19T18:24:02.220Z,97331.50
2022-08-19T18:27:06.904Z,97326.94
2022-08-19T18:30:11.372Z,97330.31
2022-08-19T18:33:15.412Z,97315.59
2022-08-19T18:36:31.982Z,97324.28
2022-08-19T18:39:58.102Z,97319.41
2022-08-19T18:43:20.098Z,97320.22
2022-08-19T18:46:40.496Z,97316.97
2022-08-19T18:49:44.064Z,97305.94
2022-08-19T18:52:48.710Z,97306.06
2022-08-19T18:55:55.364Z,97314.09
2022-08-19T18:59:02.933Z,97324.63
2022-08-19T19:02:10.093Z,97333.91
2022-08-19T19:05:14.475Z,97333.69
2022-08-19T19:08:17.410Z,97356.88
2022-08-19T19:11:24.184Z,97367.53
2022-08-19T19:14:48.559Z,97381.34
2022-08-19T19:17:52.048Z,97388.66
2022-08-19T19:20:55.192Z,97397.59
2022-08-19T19:24:01.019Z,97404.22
2022-08-19T19:27:08.462Z,97403.03
2022-08-19T19:30:13.907Z,97407.22
2022-08-19T19:33:16.722Z,97424.03
2022-08-19T19:36:19.641Z,97425.75
2022-08-19T19:39:30.648Z,97432.56
2022-08-19T19:42:48.052Z,97433.28
2022-08-19T19:45:52.325Z,97437.22
2022-08-19T19:48:59.856Z,97441.75
2022-08-19T19:52:03.121Z,97432.28
2022-08-19T19:55:06.657Z,97435.06
2022-08-19T19:58:10.127Z,97430.31
2022-08-19T20:01:21.078Z,97413.84
2022-08-19T20:04:28.149Z,97405.03
2022-08-19T20:07:44.932Z,97395.03
2022-08-19T20:10:47.805Z,97385.97
2022-08-19T20:13:50.577Z,97385.03
2022-08-19T20:16:56.320Z,97386.78
2022-08-19T20:19:59.350Z,97383.03
2022-08-19T20:23:02.396Z,97374.84
2022-08-19T20:26:06.500Z,97386.91
2022-08-19T20:29:39.391Z,97391.19
2022-08-19T20:32:39.845Z,97397.81
2022-08-19T20:35:44.392Z,97400.59
2022-08-19T20:38:47.234Z,97393.41
2022-08-19T20:41:50.875Z,97397.22
2022-08-19T20:44:53.829Z,97420.78
2022-08-19T20:48:03.826Z,97424.00
2022-08-19T20:51:31.427Z,97419.94
2022-08-19T20:57:59.229Z,97412.88
2022-08-19T21:01:03.689Z,97412.34
2022-08-19T21:04:07.840Z,97411.22
2022-08-19T21:07:10.573Z,97410.81
2022-08-19T21:10:13.401Z,97405.97
2022-08-19T21:13:17.732Z,97407.34
2022-08-19T21:16:21.717Z,97416.28
2022-08-19T21:19:25.865Z,97415.81
2022-08-19T21:22:28.711Z,97417.56
2022-08-19T21:25:31.784Z,97418.69
2022-08-19T21:28:37.361Z,97420.09
2022-08-19T21:31:40.152Z,97415.84
2022-08-19T21:34:47.422Z,97432.19
2022-08-19T21:37:50.390Z,97431.28
2022-08-19T21:40:53.259Z,97430.97
2022-08-19T21:43:56.086Z,97439.16
2022-08-19T21:46:58.893Z,97424.91
2022-08-19T21:50:02.964Z,97419.84
2022-08-19T21:53:05.787Z,97415.69
2022-08-19T21:56:08.808Z,97417.88
2022-08-19T21:59:11.633Z,97409.44
2022-08-19T22:02:22.096Z,97396.69
2022-08-19T22:05:26.873Z,97392.53
2022-08-19T22:08:31.439Z,97375.03
2022-08-19T22:11:34.602Z,97372.00
2022-08-19T22:14:38.039Z,97370.94
2022-08-19T22:17:41.940Z,97355.63
2022-08-19T22:20:47.822Z,97369.88
2022-08-19T22:23:50.568Z,97378.53
2022-08-19T22:26:55.749Z,97386.69
2022-08-19T22:29:58.627Z,97401.16
2022-08-19T22:33:04.394Z,97391.09
2022-08-19T22:36:09.367Z,97382.41
2022-08-19T22:39:12.189Z,97363.06
2022-08-19T22:42:19.845Z,97373.63
2022-08-19T22:45:23.838Z,97365.81
2022-08-19T22:48:30.776Z,97358.84
2022-08-19T22:51:53.041Z,97374.50
2022-08-19T22:55:00.050Z,97383.19
2022-08-19T22:58:02.967Z,97386.06
2022-08-19T23:01:06.965Z,97389.22
2022-08-19T23:04:10.015Z,97400.59
2022-08-19T23:07:14.571Z,97389.03
2022-08-19T23:10:18.276Z,97377.50
2022-08-19T23:13:31.732Z,97373.56
2022-08-19T23:16:38.094Z,97377.59
2022-08-19T23:19:42.241Z,97396.50
2022-08-19T23:22:49.690Z,97392.47
2022-08-19T23:25:53.544Z,97384.25
2022-08-19T23:29:13.994Z,97379.28
2022-08-19T23:32:17.635Z,97373.69
2022-08-19T23:35:21.140Z,97370.75
2022-08-19T23:38:25.983Z,97385.84
2022-08-19T23:41:28.849Z,97380.16
2022-08-19T23:44:31.639Z,97377.66
2022-08-19T23:47:36.880Z,97382.25
2022-08-19T23:50:45.482Z,97386.47
2022-08-19T23:53:49.666Z,97393.72
2022-08-19T23:56:53.782Z,97402.19
2022-08-19T23:59:56.892Z,97398.88
